Terminal Aerodrome Forecast
Issued by NWS

Home | Current Version | Previous Version | Text Only | Print | Product List | Glossary On
Versions: 1 2 3 4 5 6 7 8 9 10 11 12 13 14 15
966
FTUS42 KILM 242320
TAFCRE
TAF
KCRE 242320Z 2500/2524 07007KT P6SM SCT050
     FM250200 VRB03KT P6SM SKC
     FM251200 05007KT P6SM SKC
     FM251800 11008KT P6SM FEW250=

USA.gov is the U.S. government's official web portal to all federal, state and local government web resources and services.